createdAt,value
2023-02-17T00:02:12.249Z,20.20
2023-02-17T00:04:41.217Z,18.70
2023-02-17T00:07:10.021Z,17.87
2023-02-17T00:09:41.860Z,17.70
2023-02-17T00:12:11.776Z,17.83
2023-02-17T00:14:41.899Z,18.30
2023-02-17T00:17:11.341Z,17.37
2023-02-17T00:19:40.801Z,16.98
2023-02-17T00:22:09.810Z,17.17
2023-02-17T00:24:40.604Z,17.97
2023-02-17T00:27:08.828Z,15.85
2023-02-17T00:29:38.759Z,18.33
2023-02-17T00:32:10.581Z,17.58
2023-02-17T00:34:39.414Z,15.63
2023-02-17T00:37:07.692Z,15.27
2023-02-17T00:39:36.018Z,17.23
2023-02-17T00:42:04.647Z,15.40
2023-02-17T00:44:32.721Z,15.55
2023-02-17T00:47:01.481Z,15.27
2023-02-17T00:49:31.250Z,13.48
2023-02-17T00:52:02.242Z,15.18
2023-02-17T00:54:31.925Z,14.05
2023-02-17T00:57:02.397Z,13.80
2023-02-17T00:59:30.842Z,14.27
2023-02-17T01:02:00.749Z,14.30
2023-02-17T01:04:31.390Z,12.82
2023-02-17T01:06:59.819Z,12.87
2023-02-17T01:09:28.379Z,13.32
2023-02-17T01:11:58.157Z,14.68
2023-02-17T01:14:27.060Z,13.23
2023-02-17T01:16:55.250Z,15.53
2023-02-17T01:19:23.668Z,14.18
2023-02-17T01:21:53.637Z,13.30
2023-02-17T01:24:21.934Z,13.35
2023-02-17T01:26:51.140Z,13.45
2023-02-17T01:29:20.370Z,13.80
2023-02-17T01:31:49.188Z,13.30
2023-02-17T01:34:18.226Z,13.18
2023-02-17T01:39:54.794Z,12.80
2023-02-17T01:42:23.590Z,11.90
2023-02-17T01:47:28.796Z,13.48
2023-02-17T01:52:48.634Z,11.80
2023-02-17T01:55:22.055Z,12.98
2023-02-17T01:57:54.643Z,12.32
2023-02-17T02:00:27.620Z,13.38
2023-02-17T02:02:57.220Z,14.18
2023-02-17T02:05:26.011Z,12.65
2023-02-17T02:07:54.803Z,14.30
2023-02-17T02:10:25.793Z,12.38
2023-02-17T02:12:54.390Z,12.93
2023-02-17T02:15:27.215Z,14.30
2023-02-17T02:18:14.232Z,13.15
2023-02-17T02:21:09.659Z,14.38
2023-02-17T02:24:08.196Z,13.50
2023-02-17T02:27:11.307Z,12.90
2023-02-17T02:30:08.320Z,13.10
2023-02-17T02:32:50.842Z,12.13
2023-02-17T02:35:28.589Z,13.55
2023-02-17T02:38:03.730Z,12.90
2023-02-17T02:40:37.557Z,14.40
2023-02-17T02:43:06.766Z,13.73
2023-02-17T02:45:36.007Z,14.15
2023-02-17T02:48:05.886Z,13.38
2023-02-17T02:50:51.953Z,14.93
2023-02-17T02:53:43.913Z,13.35
2023-02-17T02:56:22.312Z,15.00
2023-02-17T02:59:01.165Z,15.90
2023-02-17T03:01:39.814Z,14.27
2023-02-17T03:04:15.903Z,15.02
2023-02-17T03:06:49.396Z,15.10
2023-02-17T03:09:22.792Z,13.90
2023-02-17T03:11:52.161Z,13.90
2023-02-17T03:14:22.557Z,14.38
2023-02-17T03:16:52.051Z,13.98
2023-02-17T03:19:25.573Z,14.27
2023-02-17T03:21:59.046Z,15.88
2023-02-17T03:24:27.964Z,15.20
2023-02-17T03:26:56.507Z,16.08
2023-02-17T03:29:26.902Z,15.77
2023-02-17T03:31:55.156Z,16.20
2023-02-17T03:34:24.941Z,17.10
2023-02-17T03:36:53.072Z,15.43
2023-02-17T03:39:21.241Z,15.20
2023-02-17T03:41:51.586Z,17.23
2023-02-17T03:44:20.390Z,15.35
2023-02-17T03:46:48.551Z,16.33
2023-02-17T03:49:17.105Z,16.15
2023-02-17T03:51:46.624Z,17.25
2023-02-17T03:54:14.982Z,18.30
2023-02-17T03:56:43.352Z,18.98
2023-02-17T03:59:11.458Z,19.17
2023-02-17T04:01:39.662Z,20.20
2023-02-17T04:04:07.871Z,19.67
2023-02-17T04:06:36.193Z,21.30
2023-02-17T04:09:05.957Z,20.93
2023-02-17T04:11:34.720Z,21.13
2023-02-17T04:14:04.382Z,19.35
2023-02-17T04:16:43.022Z,20.75
2023-02-17T04:19:11.337Z,21.23
2023-02-17T04:21:41.148Z,22.23
2023-02-17T04:24:14.876Z,20.95
2023-02-17T04:26:44.055Z,22.92
2023-02-17T04:29:13.343Z,20.97
2023-02-17T04:31:42.663Z,22.25
2023-02-17T04:34:12.883Z,19.77
2023-02-17T04:39:18.473Z,22.08
2023-02-17T04:41:47.661Z,23.33
2023-02-17T04:44:16.409Z,21.98
2023-02-17T04:46:44.895Z,21.85
2023-02-17T04:49:14.884Z,21.38
2023-02-17T04:51:43.211Z,21.98
2023-02-17T04:54:11.878Z,23.05
2023-02-17T04:56:41.821Z,21.25
2023-02-17T04:59:11.315Z,22.35
2023-02-17T05:01:39.628Z,22.50
2023-02-17T05:04:07.980Z,24.02
2023-02-17T05:06:38.283Z,22.87
2023-02-17T05:09:06.732Z,24.48
2023-02-17T05:11:35.838Z,22.20
2023-02-17T05:14:06.030Z,24.00
2023-02-17T05:16:35.690Z,24.73
2023-02-17T05:19:16.333Z,24.27
2023-02-17T05:21:49.313Z,23.38
2023-02-17T05:24:19.063Z,24.20
2023-02-17T05:26:48.033Z,26.83
2023-02-17T05:29:20.455Z,24.70
2023-02-17T05:31:51.165Z,24.55
2023-02-17T05:34:20.678Z,25.10
2023-02-17T05:36:49.637Z,24.73
2023-02-17T05:39:19.182Z,23.45
2023-02-17T05:41:48.481Z,24.95
2023-02-17T05:44:20.936Z,24.70
2023-02-17T05:46:49.839Z,24.42
2023-02-17T05:49:25.463Z,22.25
2023-02-17T05:51:53.985Z,24.95
2023-02-17T05:54:22.705Z,23.08
2023-02-17T05:57:01.922Z,23.98
2023-02-17T05:59:32.715Z,23.80
2023-02-17T06:02:03.668Z,19.25
2023-02-17T06:04:32.601Z,22.17
2023-02-17T06:07:02.325Z,22.10
2023-02-17T06:09:33.210Z,22.60
2023-02-17T06:12:03.745Z,22.05
2023-02-17T06:14:37.864Z,19.92
2023-02-17T06:17:08.301Z,21.40
2023-02-17T06:19:36.506Z,21.73
2023-02-17T06:22:05.637Z,20.50
2023-02-17T06:24:38.052Z,19.63
2023-02-17T06:27:09.242Z,19.37
2023-02-17T06:29:39.376Z,20.58
2023-02-17T06:32:10.169Z,18.90
2023-02-17T06:34:41.467Z,18.37
2023-02-17T06:37:21.863Z,16.40
2023-02-17T06:39:59.491Z,18.27
2023-02-17T06:42:28.976Z,17.50
2023-02-17T06:45:01.005Z,17.83
2023-02-17T06:47:29.612Z,16.98
2023-02-17T06:49:58.186Z,17.02
2023-02-17T06:52:26.898Z,17.80
2023-02-17T06:54:56.103Z,19.45
2023-02-17T06:57:26.015Z,18.25
2023-02-17T06:59:56.203Z,18.77
2023-02-17T07:02:29.050Z,17.20
2023-02-17T07:04:58.606Z,16.85
2023-02-17T07:07:28.096Z,14.80
2023-02-17T07:10:01.772Z,16.10
2023-02-17T07:12:31.058Z,16.90
2023-02-17T07:15:09.456Z,17.13
2023-02-17T07:17:46.202Z,16.80
2023-02-17T07:25:40.384Z,13.77
2023-02-17T07:28:10.010Z,15.70
2023-02-17T07:30:44.898Z,15.87
2023-02-17T07:33:15.716Z,15.30
2023-02-17T07:35:50.357Z,15.87
2023-02-17T07:38:21.628Z,16.50
2023-02-17T07:40:51.219Z,16.13
2023-02-17T07:43:24.807Z,15.90
2023-02-17T07:46:04.090Z,16.23
2023-02-17T07:48:37.973Z,16.33
2023-02-17T07:51:08.832Z,16.00
2023-02-17T07:53:41.176Z,16.42
2023-02-17T07:56:30.617Z,14.73
2023-02-17T08:28:18.608Z,16.83
2023-02-17T08:30:52.256Z,15.45
2023-02-17T08:52:21.606Z,17.33
2023-02-17T08:57:52.427Z,18.53
2023-02-17T09:08:52.604Z,17.52
2023-02-17T09:14:46.232Z,17.55
2023-02-17T09:17:20.690Z,16.17
2023-02-17T09:19:53.095Z,19.03
2023-02-17T09:25:10.003Z,18.83
2023-02-17T09:48:36.767Z,17.63
2023-02-17T09:51:23.439Z,16.57
2023-02-17T10:00:14.878Z,15.60
2023-02-17T10:17:26.193Z,16.33
2023-02-17T10:20:08.688Z,16.85
2023-02-17T10:22:55.167Z,16.10
2023-02-17T10:25:43.169Z,15.07
2023-02-17T10:28:29.443Z,14.80
2023-02-17T10:31:09.439Z,16.55
2023-02-17T10:33:56.874Z,14.98
2023-02-17T10:42:01.784Z,15.38
2023-02-17T10:44:33.007Z,14.27
2023-02-17T10:47:05.432Z,14.55
2023-02-17T10:49:45.792Z,14.50
2023-02-17T10:52:28.914Z,14.27
2023-02-17T10:55:20.938Z,13.10
2023-02-17T10:57:56.878Z,13.70
2023-02-17T11:00:28.269Z,14.50
2023-02-17T11:02:59.156Z,14.10
2023-02-17T11:10:49.204Z,13.40
2023-02-17T11:13:38.873Z,13.73
2023-02-17T11:16:09.018Z,14.57
2023-02-17T11:18:47.162Z,12.25
2023-02-17T11:24:09.699Z,12.45
2023-02-17T11:26:56.477Z,13.02
2023-02-17T11:32:29.599Z,12.13
2023-02-17T11:35:07.937Z,12.15
2023-02-17T11:37:44.248Z,10.50
2023-02-17T11:43:13.548Z,10.98
2023-02-17T11:45:52.174Z,10.48
2023-02-17T11:48:46.333Z,10.85
2023-02-17T11:51:21.370Z,9.50
2023-02-17T11:54:00.828Z,10.55
2023-02-17T11:56:38.898Z,8.25
2023-02-17T12:02:39.825Z,8.60
2023-02-17T12:21:01.272Z,8.52
2023-02-17T12:24:07.231Z,7.22
2023-02-17T12:26:52.454Z,7.30
2023-02-17T12:29:51.663Z,7.00
2023-02-17T12:32:35.633Z,6.47
2023-02-17T12:35:22.295Z,6.90
2023-02-17T12:38:00.295Z,6.32
2023-02-17T12:40:39.282Z,6.53
2023-02-17T12:43:21.955Z,6.50
2023-02-17T12:45:56.248Z,5.60
2023-02-17T12:53:54.333Z,5.75
2023-02-17T12:56:50.896Z,6.03
2023-02-17T12:59:34.079Z,6.20
2023-02-17T13:02:08.948Z,6.57
2023-02-17T13:04:57.617Z,6.18
2023-02-17T13:22:18.316Z,5.90
2023-02-17T15:39:17.240Z,2.70
2023-02-17T15:47:20.604Z,2.70
2023-02-17T15:49:53.674Z,2.83
2023-02-17T15:55:32.286Z,2.90
2023-02-17T16:00:39.572Z,2.60
2023-02-17T16:06:04.988Z,2.20
2023-02-17T16:20:18.108Z,3.42
2023-02-17T16:26:00.530Z,3.30
2023-02-17T16:28:29.335Z,3.20
2023-02-17T16:31:01.566Z,3.05
2023-02-17T16:38:57.857Z,3.85
2023-02-17T16:41:26.886Z,3.63
2023-02-17T16:43:57.321Z,3.83
2023-02-17T16:49:20.322Z,3.63
2023-02-17T16:51:53.125Z,3.67
2023-02-17T17:03:28.030Z,3.53
2023-02-17T17:11:51.894Z,3.90
2023-02-17T17:14:35.148Z,3.75
2023-02-17T17:19:55.752Z,3.10
2023-02-17T17:22:24.412Z,3.53
2023-02-17T17:24:53.805Z,3.53
2023-02-17T17:27:21.993Z,3.33
2023-02-17T17:29:50.011Z,3.40
2023-02-17T17:35:14.268Z,3.47
2023-02-17T17:46:10.977Z,4.23
2023-02-17T17:51:28.640Z,4.13
2023-02-17T17:56:46.846Z,4.40
2023-02-17T18:01:52.459Z,4.20
2023-02-17T18:04:58.489Z,4.53
2023-02-17T18:07:27.085Z,4.17
2023-02-17T18:09:55.321Z,3.57
2023-02-17T18:20:58.691Z,4.87
2023-02-17T18:23:29.560Z,3.57
2023-02-17T18:25:57.626Z,3.40
2023-02-17T18:34:18.617Z,4.10
2023-02-17T18:36:49.821Z,3.80
2023-02-17T18:39:19.341Z,4.60
2023-02-17T18:41:55.288Z,3.63
2023-02-17T18:47:05.720Z,4.10
2023-02-17T19:07:26.889Z,3.33
2023-02-17T19:09:56.227Z,3.17
2023-02-17T19:12:55.754Z,4.77
2023-02-17T19:15:23.800Z,3.77
2023-02-17T19:25:52.974Z,4.17
2023-02-17T19:49:56.048Z,4.10
2023-02-17T19:52:24.111Z,4.93
2023-02-17T19:54:52.954Z,4.53
2023-02-17T23:17:49.267Z,3.00
